sensor_id;sensor_type;location;lat;lon;timestamp;temperature;humidity
75155;HTU21D;63735;44.730;37.818;2023-04-29T00:00:02;12.47;80.59
75155;HTU21D;63735;44.730;37.818;2023-04-29T00:02:37;12.49;80.51
75155;HTU21D;63735;44.730;37.818;2023-04-29T00:05:03;12.47;80.58
75155;HTU21D;63735;44.730;37.818;2023-04-29T00:07:32;12.47;80.72
75155;HTU21D;63735;44.730;37.818;2023-04-29T00:09:58;12.45;80.77
75155;HTU21D;63735;44.730;37.818;2023-04-29T00:12:25;12.43;80.98
75155;HTU21D;63735;44.730;37.818;2023-04-29T00:14:52;12.46;80.92
75155;HTU21D;63735;44.730;37.818;2023-04-29T00:17:18;12.48;80.84
75155;HTU21D;63735;44.730;37.818;2023-04-29T00:19:44;12.48;80.85
75155;HTU21D;63735;44.730;37.818;2023-04-29T00:22:10;12.48;80.75
75155;HTU21D;63735;44.730;37.818;2023-04-29T00:24:36;12.48;80.67
75155;HTU21D;63735;44.730;37.818;2023-04-29T00:27:02;12.46;80.59
75155;HTU21D;63735;44.730;37.818;2023-04-29T00:29:28;12.45;80.59
75155;HTU21D;63735;44.730;37.818;2023-04-29T00:31:54;12.46;80.54
75155;HTU21D;63735;44.730;37.818;2023-04-29T00:34:20;12.47;80.43
75155;HTU21D;63735;44.730;37.818;2023-04-29T00:36:46;12.48;80.38
75155;HTU21D;63735;44.730;37.818;2023-04-29T00:39:12;12.51;80.26
75155;HTU21D;63735;44.730;37.818;2023-04-29T00:41:39;12.50;80.23
75155;HTU21D;63735;44.730;37.818;2023-04-29T00:44:05;12.50;80.22
75155;HTU21D;63735;44.730;37.818;2023-04-29T00:46:32;12.51;80.13
75155;HTU21D;63735;44.730;37.818;2023-04-29T00:48:58;12.51;80.11
75155;HTU21D;63735;44.730;37.818;2023-04-29T00:51:25;12.51;80.06
75155;HTU21D;63735;44.730;37.818;2023-04-29T00:53:51;12.50;79.98
75155;HTU21D;63735;44.730;37.818;2023-04-29T00:56:18;12.47;80.01
75155;HTU21D;63735;44.730;37.818;2023-04-29T00:58:45;12.47;80.01
75155;HTU21D;63735;44.730;37.818;2023-04-29T01:01:18;12.46;79.96
75155;HTU21D;63735;44.730;37.818;2023-04-29T01:03:44;12.44;79.91
75155;HTU21D;63735;44.730;37.818;2023-04-29T01:09:23;12.41;79.81
75155;HTU21D;63735;44.730;37.818;2023-04-29T01:14:44;12.38;79.55
75155;HTU21D;63735;44.730;37.818;2023-04-29T01:17:17;12.36;79.59
75155;HTU21D;63735;44.730;37.818;2023-04-29T01:19:49;12.40;79.61
75155;HTU21D;63735;44.730;37.818;2023-04-29T01:22:18;12.38;79.69
75155;HTU21D;63735;44.730;37.818;2023-04-29T01:24:47;12.42;79.64
75155;HTU21D;63735;44.730;37.818;2023-04-29T01:40:52;12.40;80.34
75155;HTU21D;63735;44.730;37.818;2023-04-29T01:43:29;12.40;80.52
75155;HTU21D;63735;44.730;37.818;2023-04-29T01:45:55;12.43;80.40
75155;HTU21D;63735;44.730;37.818;2023-04-29T01:48:23;12.42;80.35
75155;HTU21D;63735;44.730;37.818;2023-04-29T01:50:49;12.42;80.27
75155;HTU21D;63735;44.730;37.818;2023-04-29T01:53:16;12.40;80.20
75155;HTU21D;63735;44.730;37.818;2023-04-29T01:55:43;12.37;80.10
75155;HTU21D;63735;44.730;37.818;2023-04-29T01:58:13;12.35;80.04
75155;HTU21D;63735;44.730;37.818;2023-04-29T02:01:08;12.37;79.95
75155;HTU21D;63735;44.730;37.818;2023-04-29T02:03:35;12.38;79.89
75155;HTU21D;63735;44.730;37.818;2023-04-29T02:06:03;12.41;79.82
75155;HTU21D;63735;44.730;37.818;2023-04-29T02:08:32;12.38;79.72
75155;HTU21D;63735;44.730;37.818;2023-04-29T02:10:59;12.40;79.70
75155;HTU21D;63735;44.730;37.818;2023-04-29T02:13:34;12.40;79.72
75155;HTU21D;63735;44.730;37.818;2023-04-29T02:16:11;12.36;79.72
75155;HTU21D;63735;44.730;37.818;2023-04-29T02:18:52;12.32;79.73
75155;HTU21D;63735;44.730;37.818;2023-04-29T02:21:20;12.32;79.68
75155;HTU21D;63735;44.730;37.818;2023-04-29T02:23:46;12.34;79.61
75155;HTU21D;63735;44.730;37.818;2023-04-29T02:26:12;12.37;79.51
75155;HTU21D;63735;44.730;37.818;2023-04-29T02:28:40;12.40;79.40
75155;HTU21D;63735;44.730;37.818;2023-04-29T02:31:05;12.41;79.30
75155;HTU21D;63735;44.730;37.818;2023-04-29T02:33:32;12.44;79.24
75155;HTU21D;63735;44.730;37.818;2023-04-29T02:35:58;12.46;79.17
75155;HTU21D;63735;44.730;37.818;2023-04-29T02:38:26;12.46;79.08
75155;HTU21D;63735;44.730;37.818;2023-04-29T02:40:52;12.45;79.04
75155;HTU21D;63735;44.730;37.818;2023-04-29T02:43:20;12.47;79.05
75155;HTU21D;63735;44.730;37.818;2023-04-29T02:45:46;12.44;79.11
75155;HTU21D;63735;44.730;37.818;2023-04-29T02:48:12;12.42;79.14
75155;HTU21D;63735;44.730;37.818;2023-04-29T02:50:38;12.38;79.20
75155;HTU21D;63735;44.730;37.818;2023-04-29T02:53:04;12.35;79.36
75155;HTU21D;63735;44.730;37.818;2023-04-29T02:55:30;12.35;79.43
75155;HTU21D;63735;44.730;37.818;2023-04-29T02:58:02;12.40;79.32
75155;HTU21D;63735;44.730;37.818;2023-04-29T03:00:28;12.42;79.19
75155;HTU21D;63735;44.730;37.818;2023-04-29T03:02:54;12.42;79.08
75155;HTU21D;63735;44.730;37.818;2023-04-29T03:05:20;12.43;78.96
75155;HTU21D;63735;44.730;37.818;2023-04-29T03:07:47;12.45;78.89
75155;HTU21D;63735;44.730;37.818;2023-04-29T03:10:13;12.46;78.80
75155;HTU21D;63735;44.730;37.818;2023-04-29T03:12:39;12.45;78.72
75155;HTU21D;63735;44.730;37.818;2023-04-29T03:15:06;12.43;78.65
75155;HTU21D;63735;44.730;37.818;2023-04-29T03:17:33;12.42;78.57
75155;HTU21D;63735;44.730;37.818;2023-04-29T03:19:59;12.37;78.56
75155;HTU21D;63735;44.730;37.818;2023-04-29T03:22:25;12.36;78.56
75155;HTU21D;63735;44.730;37.818;2023-04-29T03:24:51;12.37;78.48
75155;HTU21D;63735;44.730;37.818;2023-04-29T03:27:19;12.40;78.49
75155;HTU21D;63735;44.730;37.818;2023-04-29T03:29:45;12.44;78.43
75155;HTU21D;63735;44.730;37.818;2023-04-29T03:32:12;12.47;78.39
75155;HTU21D;63735;44.730;37.818;2023-04-29T03:34:38;12.51;78.31
75155;HTU21D;63735;44.730;37.818;2023-04-29T03:37:27;12.51;78.15
75155;HTU21D;63735;44.730;37.818;2023-04-29T03:40:01;12.52;78.12
75155;HTU21D;63735;44.730;37.818;2023-04-29T03:42:28;12.52;78.15
75155;HTU21D;63735;44.730;37.818;2023-04-29T03:44:54;12.50;78.19
75155;HTU21D;63735;44.730;37.818;2023-04-29T03:47:21;12.49;78.31
75155;HTU21D;63735;44.730;37.818;2023-04-29T03:49:47;12.47;78.44
75155;HTU21D;63735;44.730;37.818;2023-04-29T03:52:13;12.43;78.54
75155;HTU21D;63735;44.730;37.818;2023-04-29T03:54:41;12.38;78.65
75155;HTU21D;63735;44.730;37.818;2023-04-29T03:57:07;12.32;78.79
75155;HTU21D;63735;44.730;37.818;2023-04-29T03:59:33;12.28;78.93
75155;HTU21D;63735;44.730;37.818;2023-04-29T04:01:59;12.27;79.04
75155;HTU21D;63735;44.730;37.818;2023-04-29T04:04:25;12.27;79.02
75155;HTU21D;63735;44.730;37.818;2023-04-29T04:06:51;12.22;79.04
75155;HTU21D;63735;44.730;37.818;2023-04-29T04:09:21;12.19;79.08
75155;HTU21D;63735;44.730;37.818;2023-04-29T04:11:47;12.15;79.14
75155;HTU21D;63735;44.730;37.818;2023-04-29T04:14:14;12.16;79.22
75155;HTU21D;63735;44.730;37.818;2023-04-29T04:16:40;12.19;79.15
75155;HTU21D;63735;44.730;37.818;2023-04-29T04:19:06;12.22;79.04
75155;HTU21D;63735;44.730;37.818;2023-04-29T04:21:36;12.27;78.94
75155;HTU21D;63735;44.730;37.818;2023-04-29T04:24:06;12.29;78.95
75155;HTU21D;63735;44.730;37.818;2023-04-29T04:26:32;12.29;78.92
75155;HTU21D;63735;44.730;37.818;2023-04-29T04:29:16;12.34;78.85
75155;HTU21D;63735;44.730;37.818;2023-04-29T04:31:52;12.43;78.77
75155;HTU21D;63735;44.730;37.818;2023-04-29T04:34:19;12.48;78.55
75155;HTU21D;63735;44.730;37.818;2023-04-29T04:36:48;12.49;78.53
75155;HTU21D;63735;44.730;37.818;2023-04-29T04:39:14;12.55;78.42
75155;HTU21D;63735;44.730;37.818;2023-04-29T04:41:40;12.56;78.32
75155;HTU21D;63735;44.730;37.818;2023-04-29T04:44:06;12.60;78.22
75155;HTU21D;63735;44.730;37.818;2023-04-29T04:46:40;12.60;77.99
75155;HTU21D;63735;44.730;37.818;2023-04-29T04:49:27;12.58;77.88
75155;HTU21D;63735;44.730;37.818;2023-04-29T04:51:53;12.57;77.81
75155;HTU21D;63735;44.730;37.818;2023-04-29T04:54:19;12.56;77.73
75155;HTU21D;63735;44.730;37.818;2023-04-29T04:56:49;12.57;77.70
75155;HTU21D;63735;44.730;37.818;2023-04-29T04:59:16;12.58;77.67
75155;HTU21D;63735;44.730;37.818;2023-04-29T05:01:42;12.61;77.57
75155;HTU21D;63735;44.730;37.818;2023-04-29T05:04:09;12.58;77.32
75155;HTU21D;63735;44.730;37.818;2023-04-29T05:06:35;12.53;77.24
75155;HTU21D;63735;44.730;37.818;2023-04-29T05:09:02;12.51;77.33
75155;HTU21D;63735;44.730;37.818;2023-04-29T05:11:28;12.56;77.31
75155;HTU21D;63735;44.730;37.818;2023-04-29T05:14:24;12.58;77.27
75155;HTU21D;63735;44.730;37.818;2023-04-29T05:16:51;12.63;77.15
75155;HTU21D;63735;44.730;37.818;2023-04-29T05:19:18;12.64;77.05
75155;HTU21D;63735;44.730;37.818;2023-04-29T05:21:44;12.63;77.02
75155;HTU21D;63735;44.730;37.818;2023-04-29T05:24:10;12.65;76.99
75155;HTU21D;63735;44.730;37.818;2023-04-29T05:26:37;12.65;76.89
75155;HTU21D;63735;44.730;37.818;2023-04-29T05:29:04;12.67;76.86
75155;HTU21D;63735;44.730;37.818;2023-04-29T05:31:37;12.69;76.86
75155;HTU21D;63735;44.730;37.818;2023-04-29T05:34:06;12.69;76.80
75155;HTU21D;63735;44.730;37.818;2023-04-29T05:36:34;12.67;76.86
75155;HTU21D;63735;44.730;37.818;2023-04-29T05:39:01;12.71;76.89
75155;HTU21D;63735;44.730;37.818;2023-04-29T05:41:28;12.78;76.83
75155;HTU21D;63735;44.730;37.818;2023-04-29T05:44:19;12.85;76.76
75155;HTU21D;63735;44.730;37.818;2023-04-29T05:46:45;12.92;76.68
75155;HTU21D;63735;44.730;37.818;2023-04-29T05:49:13;13.00;76.56
75155;HTU21D;63735;44.730;37.818;2023-04-29T05:51:40;12.97;76.61
75155;HTU21D;63735;44.730;37.818;2023-04-29T05:54:06;12.93;76.74
75155;HTU21D;63735;44.730;37.818;2023-04-29T05:56:32;12.93;76.82
75155;HTU21D;63735;44.730;37.818;2023-04-29T05:58:58;12.92;76.83
75155;HTU21D;63735;44.730;37.818;2023-04-29T06:01:24;12.92;76.76
75155;HTU21D;63735;44.730;37.818;2023-04-29T06:03:50;12.95;76.70
75155;HTU21D;63735;44.730;37.818;2023-04-29T06:06:25;13.06;76.41
75155;HTU21D;63735;44.730;37.818;2023-04-29T06:09:26;13.10;75.81
75155;HTU21D;63735;44.730;37.818;2023-04-29T06:11:52;13.12;75.76
75155;HTU21D;63735;44.730;37.818;2023-04-29T06:14:19;13.16;75.71
75155;HTU21D;63735;44.730;37.818;2023-04-29T06:16:46;13.20;75.48
75155;HTU21D;63735;44.730;37.818;2023-04-29T06:19:13;13.26;75.41
75155;HTU21D;63735;44.730;37.818;2023-04-29T06:21:39;13.29;75.35
75155;HTU21D;63735;44.730;37.818;2023-04-29T06:24:06;13.32;75.20
75155;HTU21D;63735;44.730;37.818;2023-04-29T06:26:32;13.29;74.77
75155;HTU21D;63735;44.730;37.818;2023-04-29T06:28:58;13.30;74.94
75155;HTU21D;63735;44.730;37.818;2023-04-29T06:31:24;13.30;74.63
75155;HTU21D;63735;44.730;37.818;2023-04-29T06:33:54;13.32;74.77
75155;HTU21D;63735;44.730;37.818;2023-04-29T06:36:20;13.33;74.51
75155;HTU21D;63735;44.730;37.818;2023-04-29T06:39:17;13.32;74.59
75155;HTU21D;63735;44.730;37.818;2023-04-29T06:42:09;13.22;74.83
75155;HTU21D;63735;44.730;37.818;2023-04-29T06:44:45;13.27;75.02
75155;HTU21D;63735;44.730;37.818;2023-04-29T06:47:19;13.36;74.88
75155;HTU21D;63735;44.730;37.818;2023-04-29T06:50:18;13.35;74.96
75155;HTU21D;63735;44.730;37.818;2023-04-29T06:52:44;13.43;74.94
75155;HTU21D;63735;44.730;37.818;2023-04-29T06:55:10;13.45;74.71
75155;HTU21D;63735;44.730;37.818;2023-04-29T06:57:40;13.32;74.68
75155;HTU21D;63735;44.730;37.818;2023-04-29T07:00:06;13.23;74.80
75155;HTU21D;63735;44.730;37.818;2023-04-29T07:02:32;13.19;74.89
75155;HTU21D;63735;44.730;37.818;2023-04-29T07:04:59;13.14;74.91
75155;HTU21D;63735;44.730;37.818;2023-04-29T07:07:25;13.10;74.85
75155;HTU21D;63735;44.730;37.818;2023-04-29T07:09:52;13.04;74.83
75155;HTU21D;63735;44.730;37.818;2023-04-29T07:12:19;13.03;74.76
75155;HTU21D;63735;44.730;37.818;2023-04-29T07:14:45;13.01;74.74
75155;HTU21D;63735;44.730;37.818;2023-04-29T07:17:11;13.01;74.67
75155;HTU21D;63735;44.730;37.818;2023-04-29T07:19:37;12.99;74.59
75155;HTU21D;63735;44.730;37.818;2023-04-29T07:22:03;13.01;74.51
75155;HTU21D;63735;44.730;37.818;2023-04-29T07:24:29;12.97;74.52
75155;HTU21D;63735;44.730;37.818;2023-04-29T07:26:55;12.95;74.46
75155;HTU21D;63735;44.730;37.818;2023-04-29T07:29:21;12.93;74.45
75155;HTU21D;63735;44.730;37.818;2023-04-29T07:31:48;12.91;74.46
75155;HTU21D;63735;44.730;37.818;2023-04-29T07:34:14;12.91;74.53
75155;HTU21D;63735;44.730;37.818;2023-04-29T07:36:40;12.95;74.52
75155;HTU21D;63735;44.730;37.818;2023-04-29T07:39:06;13.01;74.54
75155;HTU21D;63735;44.730;37.818;2023-04-29T07:41:32;13.09;74.42
75155;HTU21D;63735;44.730;37.818;2023-04-29T07:43:58;13.11;74.28
75155;HTU21D;63735;44.730;37.818;2023-04-29T07:46:24;13.14;74.22
75155;HTU21D;63735;44.730;37.818;2023-04-29T07:48:50;13.08;74.29
75155;HTU21D;63735;44.730;37.818;2023-04-29T07:51:17;13.05;74.38
75155;HTU21D;63735;44.730;37.818;2023-04-29T07:53:43;13.07;74.51
75155;HTU21D;63735;44.730;37.818;2023-04-29T07:56:09;13.18;74.41
75155;HTU21D;63735;44.730;37.818;2023-04-29T07:58:35;13.14;74.32
75155;HTU21D;63735;44.730;37.818;2023-04-29T08:01:05;13.08;74.44
75155;HTU21D;63735;44.730;37.818;2023-04-29T08:03:32;13.11;74.53
75155;HTU21D;63735;44.730;37.818;2023-04-29T08:06:03;13.15;74.57
75155;HTU21D;63735;44.730;37.818;2023-04-29T08:08:30;13.21;74.52
75155;HTU21D;63735;44.730;37.818;2023-04-29T08:10:56;13.29;74.49
75155;HTU21D;63735;44.730;37.818;2023-04-29T08:13:23;13.29;74.53
75155;HTU21D;63735;44.730;37.818;2023-04-29T08:15:49;13.30;74.65
75155;HTU21D;63735;44.730;37.818;2023-04-29T08:18:15;13.34;74.51
75155;HTU21D;63735;44.730;37.818;2023-04-29T08:20:41;13.31;74.56
75155;HTU21D;63735;44.730;37.818;2023-04-29T08:23:07;13.32;74.58
75155;HTU21D;63735;44.730;37.818;2023-04-29T08:25:33;13.33;74.70
75155;HTU21D;63735;44.730;37.818;2023-04-29T08:27:58;13.32;74.73
75155;HTU21D;63735;44.730;37.818;2023-04-29T08:30:25;13.29;74.80
75155;HTU21D;63735;44.730;37.818;2023-04-29T08:32:50;13.21;74.91
75155;HTU21D;63735;44.730;37.818;2023-04-29T08:35:17;13.14;75.15
75155;HTU21D;63735;44.730;37.818;2023-04-29T08:37:42;13.08;75.41
75155;HTU21D;63735;44.730;37.818;2023-04-29T08:40:09;13.07;75.57
75155;HTU21D;63735;44.730;37.818;2023-04-29T08:42:36;13.12;75.50
75155;HTU21D;63735;44.730;37.818;2023-04-29T08:45:03;13.14;75.41
75155;HTU21D;63735;44.730;37.818;2023-04-29T08:47:30;13.14;75.40
75155;HTU21D;63735;44.730;37.818;2023-04-29T08:50:01;13.10;75.50
75155;HTU21D;63735;44.730;37.818;2023-04-29T08:52:30;13.07;75.61
75155;HTU21D;63735;44.730;37.818;2023-04-29T08:54:58;12.96;75.73
75155;HTU21D;63735;44.730;37.818;2023-04-29T08:57:25;12.91;75.83
75155;HTU21D;63735;44.730;37.818;2023-04-29T08:59:52;12.86;76.05
75155;HTU21D;63735;44.730;37.818;2023-04-29T09:02:19;12.82;76.21
75155;HTU21D;63735;44.730;37.818;2023-04-29T09:05:05;12.79;76.37
75155;HTU21D;63735;44.730;37.818;2023-04-29T09:07:34;12.77;76.47
75155;HTU21D;63735;44.730;37.818;2023-04-29T09:10:01;12.74;76.52
75155;HTU21D;63735;44.730;37.818;2023-04-29T09:12:28;12.65;77.04
75155;HTU21D;63735;44.730;37.818;2023-04-29T09:14:56;12.58;77.21
75155;HTU21D;63735;44.730;37.818;2023-04-29T09:17:41;12.48;77.71
75155;HTU21D;63735;44.730;37.818;2023-04-29T09:22:47;12.45;77.85
75155;HTU21D;63735;44.730;37.818;2023-04-29T09:25:14;12.44;77.95
75155;HTU21D;63735;44.730;37.818;2023-04-29T09:27:40;12.44;78.24
75155;HTU21D;63735;44.730;37.818;2023-04-29T09:30:07;12.36;78.37
75155;HTU21D;63735;44.730;37.818;2023-04-29T09:32:34;12.25;78.78
75155;HTU21D;63735;44.730;37.818;2023-04-29T09:35:26;12.22;79.08
75155;HTU21D;63735;44.730;37.818;2023-04-29T09:37:54;12.22;78.98
75155;HTU21D;63735;44.730;37.818;2023-04-29T09:40:33;12.28;79.09
75155;HTU21D;63735;44.730;37.818;2023-04-29T09:43:00;12.47;78.92
75155;HTU21D;63735;44.730;37.818;2023-04-29T09:48:04;12.73;78.47
75155;HTU21D;63735;44.730;37.818;2023-04-29T09:50:31;12.80;78.43
75155;HTU21D;63735;44.730;37.818;2023-04-29T09:52:57;12.81;78.37
75155;HTU21D;63735;44.730;37.818;2023-04-29T09:55:25;12.79;78.40
75155;HTU21D;63735;44.730;37.818;2023-04-29T09:57:54;12.76;78.25
75155;HTU21D;63735;44.730;37.818;2023-04-29T10:00:20;12.70;78.23
75155;HTU21D;63735;44.730;37.818;2023-04-29T10:02:47;12.72;78.23
75155;HTU21D;63735;44.730;37.818;2023-04-29T10:05:17;12.79;78.07
75155;HTU21D;63735;44.730;37.818;2023-04-29T10:07:45;12.77;77.95
75155;HTU21D;63735;44.730;37.818;2023-04-29T10:10:13;12.71;77.96
75155;HTU21D;63735;44.730;37.818;2023-04-29T10:12:40;12.75;77.98
75155;HTU21D;63735;44.730;37.818;2023-04-29T10:17:47;12.77;77.79
75155;HTU21D;63735;44.730;37.818;2023-04-29T10:20:16;12.78;77.79
75155;HTU21D;63735;44.730;37.818;2023-04-29T10:22:48;12.72;77.80
75155;HTU21D;63735;44.730;37.818;2023-04-29T10:25:15;12.69;77.98
75155;HTU21D;63735;44.730;37.818;2023-04-29T10:27:42;12.70;77.95
75155;HTU21D;63735;44.730;37.818;2023-04-29T10:30:15;12.71;77.96
75155;HTU21D;63735;44.730;37.818;2023-04-29T10:32:43;12.73;78.09
75155;HTU21D;63735;44.730;37.818;2023-04-29T10:35:11;12.80;78.01
75155;HTU21D;63735;44.730;37.818;2023-04-29T10:37:43;12.82;78.09
75155;HTU21D;63735;44.730;37.818;2023-04-29T10:42:51;13.09;77.93
75155;HTU21D;63735;44.730;37.818;2023-04-29T10:45:22;13.09;77.76
75155;HTU21D;63735;44.730;37.818;2023-04-29T10:53:08;12.86;78.06
75155;HTU21D;63735;44.730;37.818;2023-04-29T10:55:36;12.77;78.24
75155;HTU21D;63735;44.730;37.818;2023-04-29T10:58:03;12.69;78.36
75155;HTU21D;63735;44.730;37.818;2023-04-29T11:00:31;12.59;78.52
75155;HTU21D;63735;44.730;37.818;2023-04-29T11:02:59;12.58;78.56
75155;HTU21D;63735;44.730;37.818;2023-04-29T11:05:32;12.71;78.47
75155;HTU21D;63735;44.730;37.818;2023-04-29T11:08:18;12.86;78.04
75155;HTU21D;63735;44.730;37.818;2023-04-29T11:10:52;12.75;78.02
75155;HTU21D;63735;44.730;37.818;2023-04-29T11:13:29;12.64;78.19
75155;HTU21D;63735;44.730;37.818;2023-04-29T11:16:09;12.59;78.16
75155;HTU21D;63735;44.730;37.818;2023-04-29T11:21:33;12.56;78.06
75155;HTU21D;63735;44.730;37.818;2023-04-29T11:24:00;12.58;78.02
75155;HTU21D;63735;44.730;37.818;2023-04-29T11:26:27;12.59;77.88
75155;HTU21D;63735;44.730;37.818;2023-04-29T11:28:53;12.58;77.98
75155;HTU21D;63735;44.730;37.818;2023-04-29T11:31:25;12.62;77.88
75155;HTU21D;63735;44.730;37.818;2023-04-29T11:33:53;12.55;77.90
75155;HTU21D;63735;44.730;37.818;2023-04-29T11:36:19;12.46;78.11
75155;HTU21D;63735;44.730;37.818;2023-04-29T11:38:45;12.40;78.24
75155;HTU21D;63735;44.730;37.818;2023-04-29T11:41:11;12.38;78.35
75155;HTU21D;63735;44.730;37.818;2023-04-29T11:43:37;12.38;78.36
75155;HTU21D;63735;44.730;37.818;2023-04-29T11:46:15;12.34;78.40
75155;HTU21D;63735;44.730;37.818;2023-04-29T11:48:47;12.37;78.41
75155;HTU21D;63735;44.730;37.818;2023-04-29T11:51:15;12.33;78.27
75155;HTU21D;63735;44.730;37.818;2023-04-29T11:53:41;12.29;78.35
75155;HTU21D;63735;44.730;37.818;2023-04-29T11:56:08;12.26;78.44
75155;HTU21D;63735;44.730;37.818;2023-04-29T11:58:34;12.22;78.59
75155;HTU21D;63735;44.730;37.818;2023-04-29T12:01:02;12.23;78.65
75155;HTU21D;63735;44.730;37.818;2023-04-29T12:03:30;12.19;78.72
75155;HTU21D;63735;44.730;37.818;2023-04-29T12:05:57;12.22;78.84
75155;HTU21D;63735;44.730;37.818;2023-04-29T12:08:24;12.29;78.72
75155;HTU21D;63735;44.730;37.818;2023-04-29T12:10:51;12.26;78.72
75155;HTU21D;63735;44.730;37.818;2023-04-29T12:13:19;12.18;78.96
75155;HTU21D;63735;44.730;37.818;2023-04-29T12:15:47;12.10;79.14
75155;HTU21D;63735;44.730;37.818;2023-04-29T12:18:13;12.04;79.31
75155;HTU21D;63735;44.730;37.818;2023-04-29T12:20:40;12.03;79.47
75155;HTU21D;63735;44.730;37.818;2023-04-29T12:23:12;12.00;79.52
75155;HTU21D;63735;44.730;37.818;2023-04-29T12:25:40;12.02;79.62
75155;HTU21D;63735;44.730;37.818;2023-04-29T12:28:12;12.07;79.57
75155;HTU21D;63735;44.730;37.818;2023-04-29T12:30:40;12.05;79.46
75155;HTU21D;63735;44.730;37.818;2023-04-29T12:33:08;12.06;79.55
75155;HTU21D;63735;44.730;37.818;2023-04-29T12:35:38;12.07;79.56
75155;HTU21D;63735;44.730;37.818;2023-04-29T12:38:04;12.12;79.53
75155;HTU21D;63735;44.730;37.818;2023-04-29T12:40:32;12.17;79.53
75155;HTU21D;63735;44.730;37.818;2023-04-29T12:43:06;12.19;79.46
75155;HTU21D;63735;44.730;37.818;2023-04-29T12:45:32;12.26;79.30
75155;HTU21D;63735;44.730;37.818;2023-04-29T12:48:00;12.27;79.27
75155;HTU21D;63735;44.730;37.818;2023-04-29T12:50:37;12.33;79.27
75155;HTU21D;63735;44.730;37.818;2023-04-29T12:53:04;12.35;79.24
75155;HTU21D;63735;44.730;37.818;2023-04-29T12:55:32;12.31;79.27
75155;HTU21D;63735;44.730;37.818;2023-04-29T12:57:59;12.30;79.36
75155;HTU21D;63735;44.730;37.818;2023-04-29T13:00:25;12.30;79.38
75155;HTU21D;63735;44.730;37.818;2023-04-29T13:02:51;12.34;79.41
75155;HTU21D;63735;44.730;37.818;2023-04-29T13:05:17;12.38;79.42
75155;HTU21D;63735;44.730;37.818;2023-04-29T13:07:43;12.46;79.31
75155;HTU21D;63735;44.730;37.818;2023-04-29T13:10:09;12.45;79.33
75155;HTU21D;63735;44.730;37.818;2023-04-29T13:12:37;12.50;79.36
75155;HTU21D;63735;44.730;37.818;2023-04-29T13:15:04;12.51;79.30
75155;HTU21D;63735;44.730;37.818;2023-04-29T13:17:30;12.50;79.43
75155;HTU21D;63735;44.730;37.818;2023-04-29T13:19:56;12.51;79.35
75155;HTU21D;63735;44.730;37.818;2023-04-29T13:22:23;12.53;79.43
75155;HTU21D;63735;44.730;37.818;2023-04-29T13:24:48;12.63;79.31
75155;HTU21D;63735;44.730;37.818;2023-04-29T13:27:14;12.66;79.27
75155;HTU21D;63735;44.730;37.818;2023-04-29T13:29:40;12.67;79.20
75155;HTU21D;63735;44.730;37.818;2023-04-29T13:32:06;12.64;79.26
75155;HTU21D;63735;44.730;37.818;2023-04-29T13:34:33;12.62;79.30
75155;HTU21D;63735;44.730;37.818;2023-04-29T13:36:59;12.63;79.33
75155;HTU21D;63735;44.730;37.818;2023-04-29T13:39:25;12.64;79.30
75155;HTU21D;63735;44.730;37.818;2023-04-29T13:41:51;12.69;79.23
75155;HTU21D;63735;44.730;37.818;2023-04-29T13:44:17;12.69;79.18
75155;HTU21D;63735;44.730;37.818;2023-04-29T13:46:43;12.66;79.18
75155;HTU21D;63735;44.730;37.818;2023-04-29T13:49:11;12.67;79.18
75155;HTU21D;63735;44.730;37.818;2023-04-29T13:51:37;12.69;79.07
75155;HTU21D;63735;44.730;37.818;2023-04-29T13:54:03;12.64;79.10
75155;HTU21D;63735;44.730;37.818;2023-04-29T13:56:29;12.61;79.14
75155;HTU21D;63735;44.730;37.818;2023-04-29T13:58:54;12.58;79.21
75155;HTU21D;63735;44.730;37.818;2023-04-29T14:01:22;12.57;79.13
75155;HTU21D;63735;44.730;37.818;2023-04-29T14:03:48;12.51;79.14
75155;HTU21D;63735;44.730;37.818;2023-04-29T14:06:14;12.51;79.12
75155;HTU21D;63735;44.730;37.818;2023-04-29T14:08:40;12.56;79.00
75155;HTU21D;63735;44.730;37.818;2023-04-29T14:11:06;12.50;78.75
75155;HTU21D;63735;44.730;37.818;2023-04-29T14:13:32;12.40;78.82
75155;HTU21D;63735;44.730;37.818;2023-04-29T14:15:58;12.23;78.95
75155;HTU21D;63735;44.730;37.818;2023-04-29T14:18:26;12.14;79.19
75155;HTU21D;63735;44.730;37.818;2023-04-29T14:20:54;12.18;79.23
75155;HTU21D;63735;44.730;37.818;2023-04-29T14:23:20;12.26;79.17
75155;HTU21D;63735;44.730;37.818;2023-04-29T14:25:46;12.30;79.08
75155;HTU21D;63735;44.730;37.818;2023-04-29T14:28:12;12.32;79.09
75155;HTU21D;63735;44.730;37.818;2023-04-29T14:30:38;12.33;79.06
75155;HTU21D;63735;44.730;37.818;2023-04-29T14:33:05;12.29;79.05
75155;HTU21D;63735;44.730;37.818;2023-04-29T14:35:32;12.25;79.21
75155;HTU21D;63735;44.730;37.818;2023-04-29T14:37:58;12.25;79.22
75155;HTU21D;63735;44.730;37.818;2023-04-29T14:40:23;12.21;79.27
75155;HTU21D;63735;44.730;37.818;2023-04-29T14:42:50;12.23;79.25
75155;HTU21D;63735;44.730;37.818;2023-04-29T14:45:16;12.25;79.22
75155;HTU21D;63735;44.730;37.818;2023-04-29T14:47:42;12.27;79.17
75155;HTU21D;63735;44.730;37.818;2023-04-29T14:50:08;12.27;79.24
75155;HTU21D;63735;44.730;37.818;2023-04-29T14:52:35;12.28;79.24
75155;HTU21D;63735;44.730;37.818;2023-04-29T14:55:01;12.29;79.26
75155;HTU21D;63735;44.730;37.818;2023-04-29T14:57:27;12.30;79.22
75155;HTU21D;63735;44.730;37.818;2023-04-29T14:59:55;12.33;79.25
75155;HTU21D;63735;44.730;37.818;2023-04-29T15:02:21;12.33;79.17
75155;HTU21D;63735;44.730;37.818;2023-04-29T15:04:47;12.30;79.21
75155;HTU21D;63735;44.730;37.818;2023-04-29T15:07:13;12.29;79.25
75155;HTU21D;63735;44.730;37.818;2023-04-29T15:09:40;12.30;79.24
75155;HTU21D;63735;44.730;37.818;2023-04-29T15:12:07;12.31;79.14
75155;HTU21D;63735;44.730;37.818;2023-04-29T15:14:34;12.23;79.24
75155;HTU21D;63735;44.730;37.818;2023-04-29T15:17:00;12.21;79.33
75155;HTU21D;63735;44.730;37.818;2023-04-29T15:19:26;12.20;79.36
75155;HTU21D;63735;44.730;37.818;2023-04-29T15:21:52;12.20;79.36
75155;HTU21D;63735;44.730;37.818;2023-04-29T15:24:18;12.19;79.37
75155;HTU21D;63735;44.730;37.818;2023-04-29T15:26:44;12.18;79.41
75155;HTU21D;63735;44.730;37.818;2023-04-29T15:29:11;12.18;79.43
75155;HTU21D;63735;44.730;37.818;2023-04-29T15:31:37;12.19;79.42
75155;HTU21D;63735;44.730;37.818;2023-04-29T15:34:03;12.20;79.44
75155;HTU21D;63735;44.730;37.818;2023-04-29T15:36:30;12.20;79.48
75155;HTU21D;63735;44.730;37.818;2023-04-29T15:38:58;12.19;79.52
75155;HTU21D;63735;44.730;37.818;2023-04-29T15:41:24;12.18;79.62
75155;HTU21D;63735;44.730;37.818;2023-04-29T15:43:55;12.18;79.72
75155;HTU21D;63735;44.730;37.818;2023-04-29T15:46:22;12.18;79.72